< < Back
Terminal Aerodrome Forecast


Current Version              Previous Versions:   1  2  3  4  5  6  7  8  9  

Terminal Aerodrome Forecast

411
FTUS42 KFFC 221100
TAFAHN
TAF
KAHN 221131Z 2212/2312 31004KT P6SM SKC
     FM221500 34006KT P6SM SKC
     FM230000 00000KT P6SM SKC=

Latest METAR

783
SAUS70 KWBC 221400 RRA
MTRAHN
METAR KAHN 221351Z VRB03KT 10SM CLR 12/06 A3011 RMK AO2 SLP195
T01170056


USA.gov is the U.S. government's official web portal to all federal, state and local government web resources and services.